Time;durP1;ratioP1;P1;durP2;ratioP2;P2;SDS_P1;SDS_P2;PMS_P1;PMS_P2;Temp;Humidity;BMP_temperature;BMP_pressure;BME280_temperature;BME280_humidity;BME280_pressure;Samples;Min_cycle;Max_cycle;Signal;HPM_P1;HPM_P2
2021/03/28 00:01:54;;;;;;;25.60;23.63;;;;;;;;;;5043441;28;20416;-71
2021/03/28 00:04:22;;;;;;;1.83;1.73;;;;;;;;;;5034105;28;20917;-73
2021/03/28 00:06:48;;;;;;;1.90;1.70;;;;;;;;;;5052461;28;20399;-71
2021/03/28 00:09:14;;;;;;;1.67;1.07;;;;;;;;;;5051610;28;20434;-73
2021/03/28 00:11:59;;;;;;;5.90;1.47;;;;;;;;;;5051556;28;20425;-72
2021/03/28 00:14:37;;;;;;;297.90;132.07;;;;;;;;;;5053504;28;20472;-76
2021/03/28 00:17:09;;;;;;;1.93;1.83;;;;;;;;;;5050409;28;20418;-74
2021/03/28 00:19:37;;;;;;;18.73;2.37;;;;;;;;;;5032742;28;20434;-74
2021/03/28 00:22:05;;;;;;;1.10;0.70;;;;;;;;;;5014771;28;20507;-73
2021/03/28 00:24:31;;;;;;;0.70;0.50;;;;;;;;;;5031924;28;20438;-71
2021/03/28 00:27:06;;;;;;;1.63;0.90;;;;;;;;;;5014140;28;20431;-72
2021/03/28 00:29:43;;;;;;;2.37;1.10;;;;;;;;;;5032892;28;20789;-72
2021/03/28 00:32:12;;;;;;;1.57;0.63;;;;;;;;;;5051056;28;20493;-73
2021/03/28 00:34:38;;;;;;;1.47;0.90;;;;;;;;;;5033152;28;20458;-73
2021/03/28 00:37:10;;;;;;;0.90;0.60;;;;;;;;;;5033555;28;20776;-72
2021/03/28 00:39:50;;;;;;;0.90;0.70;;;;;;;;;;5014118;28;20468;-72
2021/03/28 00:42:37;;;;;;;0.70;0.50;;;;;;;;;;5040770;28;20443;-72
2021/03/28 00:45:13;;;;;;;1.77;1.67;;;;;;;;;;5022167;28;20481;-73
2021/03/28 00:47:42;;;;;;;0.80;0.70;;;;;;;;;;5009917;28;20407;-71
2021/03/28 00:50:10;;;;;;;1.00;0.90;;;;;;;;;;5039507;28;20464;-71
2021/03/28 00:52:40;;;;;;;1.20;0.73;;;;;;;;;;5033365;28;20407;-74
2021/03/28 00:55:14;;;;;;;4.20;1.30;;;;;;;;;;5033047;28;20453;-76
2021/03/28 00:57:41;;;;;;;0.90;0.70;;;;;;;;;;5024874;28;20459;-75
2021/03/28 01:00:13;;;;;;;10.20;0.83;;;;;;;;;;5029582;28;20410;-76
2021/03/28 01:02:43;;;;;;;0.80;0.60;;;;;;;;;;5039019;28;20777;-77
2021/03/28 01:05:32;;;;;;;1.60;0.73;;;;;;;;;;5032452;28;20894;-76
2021/03/28 01:08:02;;;;;;;0.90;0.80;;;;;;;;;;5004250;28;20431;-74
2021/03/28 01:10:47;;;;;;;1.13;1.03;;;;;;;;;;5044364;28;20500;-76
2021/03/28 01:13:32;;;;;;;0.70;0.57;;;;;;;;;;5033019;28;20506;-76
2021/03/28 01:16:20;;;;;;;0.80;0.50;;;;;;;;;;5030910;28;20537;-78
2021/03/28 01:18:46;;;;;;;1.20;1.07;;;;;;;;;;5033030;28;20891;-74
2021/03/28 01:21:12;;;;;;;1.83;0.87;;;;;;;;;;5031216;28;20458;-75
2021/03/28 01:23:42;;;;;;;1.37;0.70;;;;;;;;;;5030507;28;20415;-74
2021/03/28 01:26:12;;;;;;;0.90;0.90;;;;;;;;;;5012933;28;20433;-75
2021/03/28 01:28:58;;;;;;;1.00;0.90;;;;;;;;;;5030640;28;20435;-74
2021/03/28 01:31:24;;;;;;;1.43;0.87;;;;;;;;;;5035546;28;20465;-74
2021/03/28 01:33:54;;;;;;;0.80;0.77;;;;;;;;;;5050611;28;20812;-74
2021/03/28 01:36:26;;;;;;;1.00;0.80;;;;;;;;;;5033635;28;20455;-74
2021/03/28 01:38:59;;;;;;;0.73;0.63;;;;;;;;;;5012734;28;20434;-77
2021/03/28 01:41:28;;;;;;;1.23;1.13;;;;;;;;;;5012678;28;20770;-76
2021/03/28 01:43:57;;;;;;;0.77;0.60;;;;;;;;;;5041168;28;20429;-77
2021/03/28 01:46:29;;;;;;;1.30;1.13;;;;;;;;;;5026589;28;20423;-75
2021/03/28 01:48:57;;;;;;;0.70;0.50;;;;;;;;;;5030551;28;20455;-75
2021/03/28 01:51:46;;;;;;;0.93;0.77;;;;;;;;;;5012707;28;20476;-75
2021/03/28 01:54:15;;;;;;;1.30;1.20;;;;;;;;;;5030563;28;20842;-76
2021/03/28 01:56:41;;;;;;;1.00;0.90;;;;;;;;;;5047959;28;20445;-74
2021/03/28 01:59:13;;;;;;;0.83;0.60;;;;;;;;;;5028672;28;20442;-75
2021/03/28 02:01:43;;;;;;;1.00;0.60;;;;;;;;;;5020024;28;20929;-76
2021/03/28 02:04:15;;;;;;;2.23;0.87;;;;;;;;;;5049672;28;20506;-77
2021/03/28 02:06:41;;;;;;;4.00;1.13;;;;;;;;;;5031454;28;20463;-74
2021/03/28 02:09:10;;;;;;;0.80;0.60;;;;;;;;;;5012769;28;20447;-74
2021/03/28 02:11:54;;;;;;;1.43;1.33;;;;;;;;;;5032479;28;20499;-75
2021/03/28 02:14:41;;;;;;;1.20;0.90;;;;;;;;;;5034292;28;20422;-73
2021/03/28 02:17:25;;;;;;;1.10;1.00;;;;;;;;;;5017210;28;20414;-75
2021/03/28 02:19:56;;;;;;;4.00;1.20;;;;;;;;;;5016539;28;20439;-75
2021/03/28 02:22:40;;;;;;;0.70;0.50;;;;;;;;;;5014221;28;20422;-74
2021/03/28 02:25:19;;;;;;;2.30;1.07;;;;;;;;;;5025003;28;20923;-74
2021/03/28 02:27:48;;;;;;;0.80;0.70;;;;;;;;;;5022522;28;20457;-74
2021/03/28 02:30:20;;;;;;;0.90;0.60;;;;;;;;;;5036411;28;20400;-73
2021/03/28 02:33:05;;;;;;;1.13;0.83;;;;;;;;;;5053421;28;20447;-73
2021/03/28 02:35:34;;;;;;;1.10;0.90;;;;;;;;;;5046754;28;20485;-72
2021/03/28 02:38:09;;;;;;;1.00;0.77;;;;;;;;;;5034811;28;20419;-75
2021/03/28 02:40:37;;;;;;;0.70;0.50;;;;;;;;;;5027168;28;20431;-72
2021/03/28 02:43:22;;;;;;;5.00;0.90;;;;;;;;;;5015889;28;20905;-73
2021/03/28 02:45:49;;;;;;;1.00;0.77;;;;;;;;;;5013654;28;20431;-73
2021/03/28 02:48:34;;;;;;;5.60;2.17;;;;;;;;;;5033175;28;20454;-72
2021/03/28 02:51:14;;;;;;;0.70;0.50;;;;;;;;;;5042705;28;20536;-75
2021/03/28 02:54:03;;;;;;;0.77;0.57;;;;;;;;;;5031634;28;20477;-73
2021/03/28 02:56:47;;;;;;;0.70;0.53;;;;;;;;;;5046727;28;20502;-74
2021/03/28 02:59:16;;;;;;;1.00;0.60;;;;;;;;;;5040660;28;20465;-73
2021/03/28 03:02:08;;;;;;;0.70;0.50;;;;;;;;;;5014543;28;20420;-72
2021/03/28 03:04:52;;;;;;;3.63;1.00;;;;;;;;;;5009193;28;20416;-73
2021/03/28 03:07:17;;;;;;;0.70;0.50;;;;;;;;;;5014244;28;20422;-74
2021/03/28 03:09:59;;;;;;;2.03;1.57;;;;;;;;;;5033317;28;20436;-72
2021/03/28 03:12:44;;;;;;;0.70;0.63;;;;;;;;;;5014891;28;20419;-72
2021/03/28 03:15:20;;;;;;;1.10;0.87;;;;;;;;;;5043243;28;20464;-73
2021/03/28 03:18:05;;;;;;;1.20;0.93;;;;;;;;;;5028157;28;20450;-73
2021/03/28 03:20:31;;;;;;;0.90;0.70;;;;;;;;;;5025614;28;21001;-72
2021/03/28 03:23:04;;;;;;;1.53;1.43;;;;;;;;;;5032483;28;20416;-73
2021/03/28 03:25:33;;;;;;;2.80;1.37;;;;;;;;;;5037558;28;20442;-72
2021/03/28 03:28:25;;;;;;;1.37;0.70;;;;;;;;;;5053035;28;20521;-73
2021/03/28 03:31:10;;;;;;;1.10;1.00;;;;;;;;;;4997554;28;20413;-74
2021/03/28 03:33:50;;;;;;;0.80;0.60;;;;;;;;;;5034717;28;20548;-73
2021/03/28 03:36:28;;;;;;;1.50;1.20;;;;;;;;;;5026669;28;20459;-74
2021/03/28 03:38:54;;;;;;;0.70;0.60;;;;;;;;;;5016359;28;20432;-73
2021/03/28 03:41:35;;;;;;;0.80;0.67;;;;;;;;;;5033875;28;20411;-73
2021/03/28 03:44:21;;;;;;;1.57;1.00;;;;;;;;;;5032605;28;20419;-73
2021/03/28 03:46:54;;;;;;;0.70;0.40;;;;;;;;;;5027498;28;20442;-73
2021/03/28 03:49:23;;;;;;;3.37;1.20;;;;;;;;;;5032147;28;20768;-74
2021/03/28 03:51:55;;;;;;;0.80;0.60;;;;;;;;;;5033614;28;21023;-73
2021/03/28 03:54:24;;;;;;;0.80;0.80;;;;;;;;;;5034498;28;20902;-74
2021/03/28 03:57:09;;;;;;;0.83;0.60;;;;;;;;;;5048975;28;20472;-74
2021/03/28 03:59:53;;;;;;;1.20;1.10;;;;;;;;;;5053518;28;20438;-76
2021/03/28 04:02:22;;;;;;;0.90;0.80;;;;;;;;;;5055515;28;20422;-74
2021/03/28 04:04:48;;;;;;;0.80;0.80;;;;;;;;;;5038377;28;20434;-71
2021/03/28 04:07:20;;;;;;;1.37;1.03;;;;;;;;;;5025634;28;20416;-71
2021/03/28 04:09:53;;;;;;;0.70;0.40;;;;;;;;;;5014951;28;20492;-72
2021/03/28 04:12:31;;;;;;;0.70;0.53;;;;;;;;;;5035454;28;20914;-73
2021/03/28 04:15:09;;;;;;;1.00;0.87;;;;;;;;;;5033792;28;20470;-74
2021/03/28 04:17:54;;;;;;;2.17;1.97;;;;;;;;;;5010677;28;20426;-74
2021/03/28 04:20:56;;;;;;;1.63;1.27;;;;;;;;;;5041885;28;20422;-73
2021/03/28 04:23:35;;;;;;;1.00;0.50;;;;;;;;;;4977586;28;20414;-73
2021/03/28 04:26:13;;;;;;;0.70;0.60;;;;;;;;;;5045943;28;20504;-74
2021/03/28 04:28:51;;;;;;;0.90;0.90;;;;;;;;;;5038598;28;20437;-74
2021/03/28 04:31:36;;;;;;;1.00;0.67;;;;;;;;;;5056567;28;20485;-74
2021/03/28 04:34:02;;;;;;;10.13;1.13;;;;;;;;;;5052532;28;20793;-73
2021/03/28 04:36:31;;;;;;;1.13;0.83;;;;;;;;;;5019160;28;20460;-73
2021/03/28 04:39:09;;;;;;;0.70;0.50;;;;;;;;;;5035554;28;20427;-74
2021/03/28 04:41:54;;;;;;;0.80;0.70;;;;;;;;;;5015384;28;20447;-74
2021/03/28 04:44:25;;;;;;;0.80;0.70;;;;;;;;;;5029153;28;20822;-75
2021/03/28 04:47:10;;;;;;;1.20;0.70;;;;;;;;;;5029655;28;20423;-75
2021/03/28 04:50:02;;;;;;;0.70;0.60;;;;;;;;;;5026378;28;20794;-76
2021/03/28 04:52:31;;;;;;;1.00;0.90;;;;;;;;;;4990303;28;20522;-74
2021/03/28 04:55:00;;;;;;;0.80;0.80;;;;;;;;;;5029224;28;20545;-78
2021/03/28 04:57:41;;;;;;;1.27;0.63;;;;;;;;;;5031057;28;20491;-74
2021/03/28 05:00:26;;;;;;;1.43;1.33;;;;;;;;;;5030730;28;21012;-76
2021/03/28 05:02:52;;;;;;;2.37;1.50;;;;;;;;;;5027134;28;20505;-76
2021/03/28 05:05:37;;;;;;;0.80;0.70;;;;;;;;;;5022920;28;20447;-75
2021/03/28 05:08:02;;;;;;;1.00;0.73;;;;;;;;;;5027147;28;20439;-75
2021/03/28 05:10:46;;;;;;;0.73;0.60;;;;;;;;;;5028454;28;20546;-76
2021/03/28 05:13:31;;;;;;;1.10;0.87;;;;;;;;;;5013737;28;20410;-74
2021/03/28 05:16:22;;;;;;;0.70;0.47;;;;;;;;;;5021282;28;20460;-76
2021/03/28 05:18:51;;;;;;;1.40;0.60;;;;;;;;;;5026693;28;20436;-75
2021/03/28 05:21:17;;;;;;;0.97;0.80;;;;;;;;;;5029780;28;20434;-75
2021/03/28 05:23:56;;;;;;;4.20;0.70;;;;;;;;;;5029281;28;20419;-74
2021/03/28 05:26:25;;;;;;;2.60;1.23;;;;;;;;;;5024114;28;20413;-72
2021/03/28 05:29:10;;;;;;;1.33;0.73;;;;;;;;;;5030728;28;20603;-73
2021/03/28 05:31:48;;;;;;;1.80;1.57;;;;;;;;;;5038009;28;20446;-73
2021/03/28 05:34:25;;;;;;;1.07;0.87;;;;;;;;;;5032605;28;20410;-75
2021/03/28 05:37:00;;;;;;;13.17;1.30;;;;;;;;;;5038975;28;20526;-74
2021/03/28 05:39:45;;;;;;;0.73;0.63;;;;;;;;;;5030123;28;20933;-75
2021/03/28 05:42:30;;;;;;;1.00;0.83;;;;;;;;;;5022284;28;20413;-73
2021/03/28 05:45:15;;;;;;;1.30;1.20;;;;;;;;;;5048052;28;20473;-75
2021/03/28 05:47:57;;;;;;;0.97;0.60;;;;;;;;;;5018502;28;21128;-76
2021/03/28 05:50:25;;;;;;;1.30;1.00;;;;;;;;;;5035088;28;20392;-75
2021/03/28 05:53:04;;;;;;;0.70;0.50;;;;;;;;;;5017416;28;20411;-75
2021/03/28 05:55:45;;;;;;;4.03;0.80;;;;;;;;;;5038575;28;20451;-74
2021/03/28 05:58:11;;;;;;;0.80;0.80;;;;;;;;;;5054572;28;20430;-75
2021/03/28 06:00:56;;;;;;;0.80;0.70;;;;;;;;;;5036501;28;20962;-72
2021/03/28 06:03:28;;;;;;;1.07;0.70;;;;;;;;;;5036349;28;20402;-72
2021/03/28 06:06:09;;;;;;;7.27;1.30;;;;;;;;;;5047248;28;20420;-75
2021/03/28 06:09:01;;;;;;;9.77;1.33;;;;;;;;;;5044158;28;20445;-74
2021/03/28 06:11:50;;;;;;;0.80;0.63;;;;;;;;;;5055327;28;20410;-72
2021/03/28 06:14:37;;;;;;;2.10;1.70;;;;;;;;;;5042137;28;20559;-73
2021/03/28 06:17:22;;;;;;;1.53;1.23;;;;;;;;;;5029408;28;20443;-74
2021/03/28 06:20:00;;;;;;;3.23;1.00;;;;;;;;;;5032412;28;20420;-74
2021/03/28 06:22:29;;;;;;;6.93;2.00;;;;;;;;;;5033657;28;20431;-74
2021/03/28 06:25:10;;;;;;;0.80;0.70;;;;;;;;;;5034140;28;20415;-73
2021/03/28 06:27:45;;;;;;;1.43;1.27;;;;;;;;;;5033738;28;20462;-74
2021/03/28 06:30:14;;;;;;;0.80;0.63;;;;;;;;;;5043695;28;20481;-73
2021/03/28 06:32:52;;;;;;;0.80;0.80;;;;;;;;;;5051012;28;20430;-73
2021/03/28 06:35:21;;;;;;;1.13;0.87;;;;;;;;;;5043825;28;20513;-73
2021/03/28 06:37:50;;;;;;;1.03;0.93;;;;;;;;;;5019634;28;20499;-73
2021/03/28 06:40:38;;;;;;;4.60;0.70;;;;;;;;;;5026743;28;20416;-72
2021/03/28 06:43:23;;;;;;;0.97;0.70;;;;;;;;;;5043345;28;20412;-72
2021/03/28 06:46:01;;;;;;;1.33;1.10;;;;;;;;;;5028671;28;20486;-74
2021/03/28 06:48:27;;;;;;;1.13;1.03;;;;;;;;;;5032162;28;20431;-73
2021/03/28 06:51:12;;;;;;;0.90;0.80;;;;;;;;;;5034276;28;21001;-73
2021/03/28 06:53:45;;;;;;;3.10;1.00;;;;;;;;;;5080246;22;20492;-68
2021/03/28 06:56:17;;;;;;;0.70;0.60;;;;;;;;;;5089932;28;20449;-67
2021/03/28 06:59:06;;;;;;;0.90;0.70;;;;;;;;;;5085494;28;20392;-66
2021/03/28 07:01:49;;;;;;;1.23;0.93;;;;;;;;;;5068045;28;20397;-64
2021/03/28 07:04:34;;;;;;;2.00;1.03;;;;;;;;;;5068504;28;20571;-68
2021/03/28 07:07:02;;;;;;;0.73;0.60;;;;;;;;;;5068250;28;20768;-67
2021/03/28 07:09:31;;;;;;;1.10;0.80;;;;;;;;;;5073075;28;20399;-66
2021/03/28 07:11:57;;;;;;;0.77;0.63;;;;;;;;;;5048021;28;21033;-65
2021/03/28 07:14:42;;;;;;;2.30;1.57;;;;;;;;;;5069242;28;20411;-66
2021/03/28 07:17:14;;;;;;;1.50;1.00;;;;;;;;;;5069509;28;20426;-67
2021/03/28 07:19:49;;;;;;;1.47;0.90;;;;;;;;;;5068020;28;20402;-66
2021/03/28 07:22:18;;;;;;;4.50;1.40;;;;;;;;;;5057062;28;20450;-68
2021/03/28 07:24:50;;;;;;;2.70;0.80;;;;;;;;;;5061725;28;20476;-66
2021/03/28 07:27:22;;;;;;;3.90;1.10;;;;;;;;;;5068344;28;20412;-66
2021/03/28 07:30:06;;;;;;;0.90;0.87;;;;;;;;;;5049140;28;20411;-66
2021/03/28 07:32:44;;;;;;;2.07;1.17;;;;;;;;;;5058588;28;20450;-66
2021/03/28 07:35:37;;;;;;;0.83;0.73;;;;;;;;;;5071822;28;20482;-67
2021/03/28 07:38:09;;;;;;;1.10;0.80;;;;;;;;;;5059944;28;20892;-67
2021/03/28 07:40:38;;;;;;;1.13;0.93;;;;;;;;;;5055301;28;20558;-67
2021/03/28 07:43:04;;;;;;;0.90;0.50;;;;;;;;;;5076078;22;20851;-72
2021/03/28 07:45:36;;;;;;;0.80;0.80;;;;;;;;;;5091394;28;20411;-73
2021/03/28 07:48:02;;;;;;;4.00;1.13;;;;;;;;;;5085677;28;20801;-73
2021/03/28 07:50:40;;;;;;;3.10;0.77;;;;;;;;;;5082304;28;20407;-72
2021/03/28 07:53:09;;;;;;;0.70;0.60;;;;;;;;;;5079910;28;20415;-71
2021/03/28 07:55:38;;;;;;;0.70;0.50;;;;;;;;;;5046121;28;20463;-72
2021/03/28 07:58:26;;;;;;;1.00;0.83;;;;;;;;;;5064545;28;20406;-74
2021/03/28 08:01:06;;;;;;;1.47;0.50;;;;;;;;;;5065715;28;20759;-72
2021/03/28 08:03:46;;;;;;;0.83;0.80;;;;;;;;;;5069136;28;20435;-69
2021/03/28 08:06:31;;;;;;;1.37;0.90;;;;;;;;;;5068768;28;20705;-72
2021/03/28 08:09:16;;;;;;;1.13;0.90;;;;;;;;;;5060627;28;20430;-72
2021/03/28 08:11:44;;;;;;;0.70;0.60;;;;;;;;;;5068686;28;20766;-73
2021/03/28 08:14:29;;;;;;;2.30;1.03;;;;;;;;;;5069057;28;20445;-73
2021/03/28 08:17:10;;;;;;;1.13;0.73;;;;;;;;;;5078217;28;20480;-73
2021/03/28 08:19:55;;;;;;;4.20;1.23;;;;;;;;;;5050039;28;20426;-74
2021/03/28 08:22:24;;;;;;;2.23;1.33;;;;;;;;;;5069259;28;20386;-71
2021/03/28 08:25:09;;;;;;;0.93;0.70;;;;;;;;;;5066214;28;20405;-73
2021/03/28 08:28:07;;;;;;;4.80;1.87;;;;;;;;;;5066078;28;20410;-73
2021/03/28 08:30:35;;;;;;;1.43;0.90;;;;;;;;;;4986139;28;20445;-72
2021/03/28 08:33:24;;;;;;;5.70;2.30;;;;;;;;;;5068671;28;20429;-72
2021/03/28 08:36:08;;;;;;;1.10;0.70;;;;;;;;;;5062189;28;20462;-73
2021/03/28 08:38:51;;;;;;;0.90;0.70;;;;;;;;;;5064298;28;20406;-74
2021/03/28 08:41:23;;;;;;;1.33;0.97;;;;;;;;;;5066764;28;21535;-73
2021/03/28 08:44:00;;;;;;;25.27;3.00;;;;;;;;;;5068614;28;20949;-72
2021/03/28 08:46:37;;;;;;;3.97;1.57;;;;;;;;;;5054295;28;20442;-68
2021/03/28 08:49:10;;;;;;;1.63;1.27;;;;;;;;;;5041652;28;20917;-73
2021/03/28 08:51:49;;;;;;;1.47;0.80;;;;;;;;;;5045376;28;20392;-71
2021/03/28 08:54:34;;;;;;;1.57;1.13;;;;;;;;;;5054405;28;20426;-73
2021/03/28 08:57:07;;;;;;;3.93;1.03;;;;;;;;;;5064985;28;20400;-73
2021/03/28 08:59:35;;;;;;;1.57;1.47;;;;;;;;;;5063238;28;20434;-73
2021/03/28 09:02:17;;;;;;;1.53;1.30;;;;;;;;;;5063507;28;20410;-73
2021/03/28 09:05:12;;;;;;;3.23;1.50;;;;;;;;;;5062557;28;20447;-72
2021/03/28 09:07:57;;;;;;;3.33;3.10;;;;;;;;;;5039301;28;20487;-72
2021/03/28 09:10:42;;;;;;;2.50;1.40;;;;;;;;;;5053522;28;20441;-72
2021/03/28 09:13:14;;;;;;;3.33;1.53;;;;;;;;;;5061571;28;21731;-72
2021/03/28 09:16:03;;;;;;;2.30;0.93;;;;;;;;;;5061582;28;20461;-73
2021/03/28 09:18:47;;;;;;;1.20;0.80;;;;;;;;;;5067774;28;20482;-72
2021/03/28 09:21:19;;;;;;;1.53;1.27;;;;;;;;;;5063721;28;20828;-73
2021/03/28 09:24:01;;;;;;;8.30;1.23;;;;;;;;;;5065591;28;20459;-70
2021/03/28 09:26:30;;;;;;;7.10;0.83;;;;;;;;;;5048449;28;20407;-71
2021/03/28 09:28:59;;;;;;;0.80;0.63;;;;;;;;;;5064308;28;20377;-72
2021/03/28 09:31:25;;;;;;;2.40;1.00;;;;;;;;;;5067785;28;20392;-73
2021/03/28 09:33:56;;;;;;;1.00;0.80;;;;;;;;;;5055009;28;20445;-72
2021/03/28 09:36:27;;;;;;;5.70;1.53;;;;;;;;;;5058199;28;21026;-70
2021/03/28 09:39:08;;;;;;;3.07;1.03;;;;;;;;;;5047290;28;20413;-72
2021/03/28 09:41:45;;;;;;;2.50;1.10;;;;;;;;;;5067213;28;20743;-71
2021/03/28 09:44:14;;;;;;;1.30;1.07;;;;;;;;;;5048840;28;20415;-71
2021/03/28 09:47:03;;;;;;;1.10;0.93;;;;;;;;;;5065842;28;20425;-72
2021/03/28 09:49:31;;;;;;;3.03;1.23;;;;;;;;;;5066939;28;20391;-70
2021/03/28 09:52:03;;;;;;;0.90;0.80;;;;;;;;;;5067216;28;20464;-72
2021/03/28 09:54:45;;;;;;;3.43;1.30;;;;;;;;;;5066311;28;20425;-71
2021/03/28 09:57:11;;;;;;;1.70;1.30;;;;;;;;;;5068588;28;20899;-71
2021/03/28 09:59:43;;;;;;;0.80;0.60;;;;;;;;;;5062524;28;20505;-72
2021/03/28 10:02:12;;;;;;;3.90;2.30;;;;;;;;;;5047729;28;20381;-72
2021/03/28 10:04:47;;;;;;;1.43;1.00;;;;;;;;;;5063084;28;20430;-70
2021/03/28 10:07:14;;;;;;;1.60;0.97;;;;;;;;;;5065349;28;20410;-72
2021/03/28 10:09:59;;;;;;;3.73;1.27;;;;;;;;;;5063104;28;20394;-71
2021/03/28 10:12:25;;;;;;;2.03;1.10;;;;;;;;;;5063528;28;20446;-73
2021/03/28 10:15:09;;;;;;;0.80;0.70;;;;;;;;;;5064953;28;20856;-72
2021/03/28 10:17:39;;;;;;;0.90;0.73;;;;;;;;;;5066336;28;20487;-73
2021/03/28 10:20:37;;;;;;;0.90;0.83;;;;;;;;;;5065287;28;20398;-74
2021/03/28 10:23:22;;;;;;;10.30;1.53;;;;;;;;;;5017688;28;20996;-72
2021/03/28 10:25:54;;;;;;;6.83;1.27;;;;;;;;;;5061109;28;20373;-72
2021/03/28 10:28:43;;;;;;;3.20;1.47;;;;;;;;;;5060694;28;20411;-73
2021/03/28 10:31:23;;;;;;;4.97;2.03;;;;;;;;;;5053698;28;20442;-73
2021/03/28 10:34:06;;;;;;;1.43;0.90;;;;;;;;;;5064121;28;20428;-72
2021/03/28 10:36:52;;;;;;;0.93;0.73;;;;;;;;;;5063374;28;20450;-72
2021/03/28 10:39:21;;;;;;;0.70;0.53;;;;;;;;;;5066229;28;20422;-72
2021/03/28 10:42:05;;;;;;;1.10;0.67;;;;;;;;;;5062769;28;20391;-70
2021/03/28 10:44:34;;;;;;;0.90;0.67;;;;;;;;;;5066559;28;20449;-71
2021/03/28 10:47:21;;;;;;;2.27;1.20;;;;;;;;;;5060286;28;20891;-73
2021/03/28 10:50:00;;;;;;;1.33;1.20;;;;;;;;;;5058245;28;20442;-74
2021/03/28 10:52:44;;;;;;;1.70;1.60;;;;;;;;;;5058741;28;20375;-69
2021/03/28 10:55:30;;;;;;;1.20;0.80;;;;;;;;;;5046025;28;20897;-75
2021/03/28 10:58:15;;;;;;;4.03;1.33;;;;;;;;;;5066133;28;20380;-72
2021/03/28 11:00:41;;;;;;;6.90;1.30;;;;;;;;;;5072981;28;20430;-73
2021/03/28 11:03:24;;;;;;;6.50;3.53;;;;;;;;;;5040974;28;20466;-73
2021/03/28 11:05:55;;;;;;;5.73;3.57;;;;;;;;;;5063083;28;20791;-73
2021/03/28 11:08:41;;;;;;;4.30;0.77;;;;;;;;;;5071317;28;20418;-72
2021/03/28 11:11:25;;;;;;;2.07;1.13;;;;;;;;;;5065785;28;20530;-72
2021/03/28 11:13:51;;;;;;;1.43;1.03;;;;;;;;;;5050185;28;20430;-73
2021/03/28 11:16:32;;;;;;;2.93;0.93;;;;;;;;;;5074770;28;20460;-72
2021/03/28 11:19:13;;;;;;;0.90;0.80;;;;;;;;;;5080892;28;20410;-73
2021/03/28 11:21:39;;;;;;;2.50;2.30;;;;;;;;;;5075528;28;20421;-73
2021/03/28 11:24:20;;;;;;;4.10;0.90;;;;;;;;;;5052190;28;20437;-70
2021/03/28 11:26:49;;;;;;;3.03;1.13;;;;;;;;;;5075466;28;20447;-73
2021/03/28 11:29:37;;;;;;;1.57;0.90;;;;;;;;;;5076516;28;20485;-72
2021/03/28 11:32:10;;;;;;;1.67;1.13;;;;;;;;;;5068479;28;20418;-74
2021/03/28 11:35:02;;;;;;;1.00;0.90;;;;;;;;;;5079151;28;20827;-72
2021/03/28 11:37:36;;;;;;;5.43;1.60;;;;;;;;;;5067846;28;21067;-73
2021/03/28 11:40:08;;;;;;;5.70;1.77;;;;;;;;;;5069094;28;20405;-72
2021/03/28 11:42:35;;;;;;;1.47;1.03;;;;;;;;;;5076484;28;20433;-72
2021/03/28 11:45:01;;;;;;;1.60;1.50;;;;;;;;;;5075942;28;20446;-73
2021/03/28 11:47:34;;;;;;;1.63;1.20;;;;;;;;;;5072445;28;20503;-71
2021/03/28 11:50:05;;;;;;;3.60;1.17;;;;;;;;;;5079223;28;20400;-73
2021/03/28 11:52:34;;;;;;;1.83;1.37;;;;;;;;;;5061159;28;20424;-73
2021/03/28 11:55:06;;;;;;;1.57;1.13;;;;;;;;;;5075937;28;20449;-72
2021/03/28 11:57:33;;;;;;;1.10;1.00;;;;;;;;;;5069366;28;20433;-72
2021/03/28 12:00:13;;;;;;;1.73;0.67;;;;;;;;;;5075472;28;20419;-72
2021/03/28 12:02:38;;;;;;;0.70;0.40;;;;;;;;;;5074645;28;20447;-73
2021/03/28 12:05:09;;;;;;;6.43;1.43;;;;;;;;;;5074866;28;20432;-73
2021/03/28 12:07:44;;;;;;;3.47;1.70;;;;;;;;;;5075101;28;20408;-73
2021/03/28 12:10:10;;;;;;;0.80;0.60;;;;;;;;;;5049485;28;20448;-73
2021/03/28 12:12:39;;;;;;;2.03;1.63;;;;;;;;;;5066134;28;20509;-73
2021/03/28 12:15:24;;;;;;;2.93;1.57;;;;;;;;;;5063376;28;20469;-73
2021/03/28 12:18:10;;;;;;;1.10;1.00;;;;;;;;;;5066399;28;20441;-72
2021/03/28 12:20:36;;;;;;;1.30;0.70;;;;;;;;;;5067465;28;20418;-72
2021/03/28 12:23:02;;;;;;;1.60;0.90;;;;;;;;;;5060422;28;20422;-72
2021/03/28 12:25:31;;;;;;;3.10;1.87;;;;;;;;;;5067404;28;20925;-72
2021/03/28 12:27:58;;;;;;;2.10;2.00;;;;;;;;;;5062474;28;20509;-72
2021/03/28 12:30:30;;;;;;;4.00;1.17;;;;;;;;;;5059960;28;20414;-73
2021/03/28 12:33:02;;;;;;;0.90;0.57;;;;;;;;;;5056173;28;20473;-71
2021/03/28 12:35:31;;;;;;;0.80;0.60;;;;;;;;;;5066325;28;20462;-73
2021/03/28 12:37:58;;;;;;;2.60;1.40;;;;;;;;;;5033776;28;20400;-74
2021/03/28 12:40:34;;;;;;;0.90;0.70;;;;;;;;;;5049384;28;20442;-73
2021/03/28 12:43:01;;;;;;;3.23;1.07;;;;;;;;;;5058504;28;20801;-74
2021/03/28 12:45:27;;;;;;;0.80;0.60;;;;;;;;;;5068034;28;21098;-73
2021/03/28 12:47:57;;;;;;;1.10;0.80;;;;;;;;;;5046753;28;20432;-71
2021/03/28 12:50:28;;;;;;;1.70;1.60;;;;;;;;;;5067434;28;20403;-72
2021/03/28 12:52:55;;;;;;;2.30;1.30;;;;;;;;;;5055186;28;20979;-72
2021/03/28 12:55:30;;;;;;;0.90;0.80;;;;;;;;;;5071083;28;20503;-73
2021/03/28 12:57:56;;;;;;;0.97;0.97;;;;;;;;;;5066726;28;20434;-73
2021/03/28 13:00:40;;;;;;;0.70;0.53;;;;;;;;;;5055736;28;20648;-71
2021/03/28 13:03:12;;;;;;;1.67;0.90;;;;;;;;;;5062217;28;21020;-73
2021/03/28 13:05:58;;;;;;;1.00;0.90;;;;;;;;;;5060761;28;20478;-73
2021/03/28 13:08:24;;;;;;;0.90;0.80;;;;;;;;;;5061980;28;20462;-73
2021/03/28 13:10:57;;;;;;;1.20;1.00;;;;;;;;;;5050964;28;20414;-72
2021/03/28 13:13:24;;;;;;;0.90;0.70;;;;;;;;;;5058212;28;20933;-74
2021/03/28 13:15:55;;;;;;;1.90;0.80;;;;;;;;;;5060985;28;20473;-72
2021/03/28 13:18:30;;;;;;;1.60;1.50;;;;;;;;;;5059008;28;20434;-73
2021/03/28 13:20:58;;;;;;;2.70;1.00;;;;;;;;;;5063334;28;20429;-72
2021/03/28 13:23:26;;;;;;;1.20;0.93;;;;;;;;;;5065718;28;20437;-72
2021/03/28 13:26:09;;;;;;;4.93;1.83;;;;;;;;;;5049059;28;20410;-72
2021/03/28 13:28:36;;;;;;;1.20;0.90;;;;;;;;;;5065827;28;20796;-73
2021/03/28 13:31:43;;;;;;;0.93;0.80;;;;;;;;;;5064085;28;20392;-73
2021/03/28 13:34:09;;;;;;;1.17;1.03;;;;;;;;;;4963651;28;20446;-72
2021/03/28 13:36:42;;;;;;;0.80;0.60;;;;;;;;;;4965171;28;21023;-72
2021/03/28 13:39:08;;;;;;;2.20;1.50;;;;;;;;;;4948856;28;20423;-73
2021/03/28 13:41:37;;;;;;;7.40;1.43;;;;;;;;;;4950406;28;20521;-72
2021/03/28 13:44:12;;;;;;;1.80;1.10;;;;;;;;;;5006622;22;20486;-74
2021/03/28 13:46:45;;;;;;;1.33;0.97;;;;;;;;;;5044844;28;20413;-75
2021/03/28 13:49:21;;;;;;;2.60;0.63;;;;;;;;;;5040989;28;20408;-77
2021/03/28 13:52:04;;;;;;;2.17;1.40;;;;;;;;;;5045542;28;20405;-76
2021/03/28 13:54:31;;;;;;;2.47;1.40;;;;;;;;;;5048688;28;20483;-75
2021/03/28 13:56:58;;;;;;;4.60;1.60;;;;;;;;;;5050275;28;20418;-75
2021/03/28 13:59:34;;;;;;;2.30;1.10;;;;;;;;;;5033804;28;20425;-75
2021/03/28 14:02:13;;;;;;;0.80;0.80;;;;;;;;;;5028179;28;20486;-75
2021/03/28 14:05:05;;;;;;;1.10;1.00;;;;;;;;;;5028575;28;20426;-75
2021/03/28 14:07:42;;;;;;;0.70;0.50;;;;;;;;;;5025841;28;20430;-75
2021/03/28 14:10:08;;;;;;;1.00;0.90;;;;;;;;;;5050122;28;20409;-75
2021/03/28 14:12:37;;;;;;;2.60;1.07;;;;;;;;;;5048792;28;20435;-75
2021/03/28 14:15:09;;;;;;;1.30;0.80;;;;;;;;;;5033414;28;20439;-74
2021/03/28 14:17:35;;;;;;;1.53;1.13;;;;;;;;;;5034788;28;20414;-75
2021/03/28 14:20:14;;;;;;;0.87;0.87;;;;;;;;;;5051298;28;20436;-74
2021/03/28 14:22:54;;;;;;;1.40;0.70;;;;;;;;;;5048669;28;20467;-75
2021/03/28 14:25:47;;;;;;;1.20;0.70;;;;;;;;;;5026849;28;20518;-75
2021/03/28 14:28:34;;;;;;;1.00;0.80;;;;;;;;;;5021030;28;20454;-74
2021/03/28 14:31:12;;;;;;;1.27;0.90;;;;;;;;;;5042300;28;20403;-74
2021/03/28 14:33:44;;;;;;;1.40;0.83;;;;;;;;;;5046727;28;20872;-75
2021/03/28 14:36:29;;;;;;;0.87;0.80;;;;;;;;;;5043190;28;20590;-74
2021/03/28 14:39:13;;;;;;;1.27;1.17;;;;;;;;;;5046213;28;20400;-74
2021/03/28 14:41:47;;;;;;;0.70;0.50;;;;;;;;;;5041061;28;20462;-74
2021/03/28 14:44:32;;;;;;;0.70;0.50;;;;;;;;;;5025695;28;20539;-74
2021/03/28 14:47:02;;;;;;;1.10;0.90;;;;;;;;;;5021056;28;20413;-74
2021/03/28 14:49:28;;;;;;;1.00;0.90;;;;;;;;;;5050802;28;20485;-74
2021/03/28 14:52:22;;;;;;;3.20;1.87;;;;;;;;;;5036411;28;20473;-75
2021/03/28 14:55:08;;;;;;;1.27;1.10;;;;;;;;;;5024782;28;20891;-74
2021/03/28 14:57:44;;;;;;;1.40;1.27;;;;;;;;;;4983642;28;20393;-79
2021/03/28 15:00:23;;;;;;;0.70;0.50;;;;;;;;;;5041596;28;20413;-70
2021/03/28 15:03:15;;;;;;;1.00;0.90;;;;;;;;;;5021607;28;20406;-72
2021/03/28 15:05:55;;;;;;;1.13;1.03;;;;;;;;;;5013572;28;20506;-76
2021/03/28 15:08:30;;;;;;;0.70;0.50;;;;;;;;;;5046095;28;20374;-73
2021/03/28 15:11:03;;;;;;;1.17;0.87;;;;;;;;;;5040568;28;20442;-76
2021/03/28 15:13:29;;;;;;;1.87;1.23;;;;;;;;;;5041363;28;20544;-72
2021/03/28 15:16:17;;;;;;;6.33;0.90;;;;;;;;;;5043314;28;20507;-70
2021/03/28 15:18:50;;;;;;;4.07;1.30;;;;;;;;;;5046394;28;20394;-76
2021/03/28 15:21:39;;;;;;;7.63;1.67;;;;;;;;;;5026657;28;20915;-70
2021/03/28 15:24:11;;;;;;;1.00;0.80;;;;;;;;;;5036615;28;20421;-72
2021/03/28 15:26:55;;;;;;;6.30;0.90;;;;;;;;;;5044108;28;20415;-72
2021/03/28 15:29:25;;;;;;;0.83;0.60;;;;;;;;;;5025551;28;20780;-74
2021/03/28 15:31:57;;;;;;;0.80;0.80;;;;;;;;;;5050131;28;20419;-73
2021/03/28 15:34:36;;;;;;;2.37;1.10;;;;;;;;;;5029475;28;20439;-73
2021/03/28 15:37:15;;;;;;;0.90;0.60;;;;;;;;;;5048061;28;20480;-74